Ute, Iowa
Current Conditions -  °F | °C
As of 4:55 AM on Thursday 27 Nov 2014 (Local Time) from KDNS Reporting Station
Broken Clouds Broken Clouds  
Wind Chill: -22°   Ceiling: 4600
Heat Index: -14°   Visibility: 10mi
Dew Point: -20°   Wind: 10mph
Humidity: 61%   Direction: 360°N
Pressure: 30.48"   Gusts: NA
Location:  42.05°N, 95.71°W
Report Text: KDNS 271055Z AUTO 36009KT 10SM BKN046 BKN050 M14/M20 A3048 RMK AO2
Loading
Personal Weather Stations






























Interactive Weather Map New forecast layout! Learn more

10-Day Weather Forecast

Advertisements
Track Severe Weather on mobile